sensor_id;sensor_type;location;lat;lon;timestamp;P1;durP1;ratioP1;P2;durP2;ratioP2
35839;SDS011;35514;50.504;30.500;2022-12-18T00:01:19;26.50;;;9.55;;
35839;SDS011;35514;50.504;30.500;2022-12-18T00:03:47;31.27;;;11.27;;
35839;SDS011;35514;50.504;30.500;2022-12-18T00:06:15;32.22;;;11.52;;
35839;SDS011;35514;50.504;30.500;2022-12-18T00:08:43;35.53;;;11.45;;
35839;SDS011;35514;50.504;30.500;2022-12-18T00:11:11;31.83;;;9.60;;
35839;SDS011;35514;50.504;30.500;2022-12-18T00:13:41;31.30;;;10.20;;
35839;SDS011;35514;50.504;30.500;2022-12-18T00:16:09;37.53;;;12.75;;
35839;SDS011;35514;50.504;30.500;2022-12-18T00:18:37;30.98;;;10.05;;
35839;SDS011;35514;50.504;30.500;2022-12-18T00:21:07;32.13;;;12.65;;
35839;SDS011;35514;50.504;30.500;2022-12-18T00:23:35;29.95;;;11.15;;
35839;SDS011;35514;50.504;30.500;2022-12-18T00:26:05;36.30;;;13.43;;
35839;SDS011;35514;50.504;30.500;2022-12-18T00:28:33;33.80;;;12.43;;
35839;SDS011;35514;50.504;30.500;2022-12-18T00:31:02;35.13;;;12.82;;
35839;SDS011;35514;50.504;30.500;2022-12-18T00:33:29;27.92;;;12.55;;
35839;SDS011;35514;50.504;30.500;2022-12-18T00:35:59;33.47;;;12.20;;
35839;SDS011;35514;50.504;30.500;2022-12-18T00:38:27;39.22;;;12.27;;
35839;SDS011;35514;50.504;30.500;2022-12-18T00:40:55;37.47;;;13.30;;
35839;SDS011;35514;50.504;30.500;2022-12-18T00:43:22;35.13;;;12.48;;
35839;SDS011;35514;50.504;30.500;2022-12-18T00:45:49;32.08;;;11.93;;
35839;SDS011;35514;50.504;30.500;2022-12-18T00:48:18;32.58;;;10.50;;
35839;SDS011;35514;50.504;30.500;2022-12-18T00:50:47;32.03;;;12.32;;
35839;SDS011;35514;50.504;30.500;2022-12-18T00:53:14;34.58;;;12.05;;
35839;SDS011;35514;50.504;30.500;2022-12-18T00:55:42;36.17;;;11.60;;
35839;SDS011;35514;50.504;30.500;2022-12-18T00:58:14;29.92;;;11.13;;
35839;SDS011;35514;50.504;30.500;2022-12-18T01:00:42;34.45;;;10.48;;
35839;SDS011;35514;50.504;30.500;2022-12-18T01:03:10;31.10;;;10.95;;
35839;SDS011;35514;50.504;30.500;2022-12-18T01:05:41;30.13;;;11.65;;
35839;SDS011;35514;50.504;30.500;2022-12-18T01:08:09;33.83;;;10.90;;
35839;SDS011;35514;50.504;30.500;2022-12-18T01:10:39;34.63;;;11.90;;
35839;SDS011;35514;50.504;30.500;2022-12-18T01:13:07;31.25;;;12.57;;
35839;SDS011;35514;50.504;30.500;2022-12-18T01:15:35;37.85;;;13.20;;
35839;SDS011;35514;50.504;30.500;2022-12-18T01:18:03;37.65;;;13.48;;
35839;SDS011;35514;50.504;30.500;2022-12-18T01:20:30;31.17;;;12.65;;
35839;SDS011;35514;50.504;30.500;2022-12-18T01:23:00;35.13;;;13.38;;
35839;SDS011;35514;50.504;30.500;2022-12-18T01:25:28;31.42;;;11.75;;
35839;SDS011;35514;50.504;30.500;2022-12-18T01:27:55;44.45;;;13.57;;
35839;SDS011;35514;50.504;30.500;2022-12-18T01:30:25;31.20;;;12.15;;
35839;SDS011;35514;50.504;30.500;2022-12-18T01:32:52;31.50;;;11.30;;
35839;SDS011;35514;50.504;30.500;2022-12-18T01:35:20;33.75;;;12.05;;
35839;SDS011;35514;50.504;30.500;2022-12-18T01:37:47;34.63;;;12.63;;
35839;SDS011;35514;50.504;30.500;2022-12-18T01:40:19;42.38;;;15.48;;
35839;SDS011;35514;50.504;30.500;2022-12-18T01:42:49;36.65;;;13.57;;
35839;SDS011;35514;50.504;30.500;2022-12-18T01:45:24;42.42;;;14.05;;
35839;SDS011;35514;50.504;30.500;2022-12-18T01:47:53;41.20;;;13.38;;
35839;SDS011;35514;50.504;30.500;2022-12-18T01:50:25;30.30;;;12.93;;
35839;SDS011;35514;50.504;30.500;2022-12-18T01:52:56;36.03;;;12.77;;
35839;SDS011;35514;50.504;30.500;2022-12-18T01:55:28;36.38;;;12.57;;
35839;SDS011;35514;50.504;30.500;2022-12-18T01:57:56;39.13;;;11.60;;
35839;SDS011;35514;50.504;30.500;2022-12-18T02:00:25;33.83;;;12.75;;
35839;SDS011;35514;50.504;30.500;2022-12-18T02:02:53;35.25;;;12.75;;
35839;SDS011;35514;50.504;30.500;2022-12-18T02:05:24;32.08;;;12.48;;
35839;SDS011;35514;50.504;30.500;2022-12-18T02:08:16;40.08;;;14.75;;
35839;SDS011;35514;50.504;30.500;2022-12-18T02:10:56;34.83;;;12.10;;
35839;SDS011;35514;50.504;30.500;2022-12-18T02:13:32;33.88;;;11.38;;
35839;SDS011;35514;50.504;30.500;2022-12-18T02:16:04;31.20;;;12.18;;
35839;SDS011;35514;50.504;30.500;2022-12-18T02:18:33;33.53;;;11.85;;
35839;SDS011;35514;50.504;30.500;2022-12-18T02:21:08;35.40;;;12.88;;
35839;SDS011;35514;50.504;30.500;2022-12-18T02:23:48;27.85;;;11.45;;
35839;SDS011;35514;50.504;30.500;2022-12-18T02:26:23;35.88;;;12.05;;
35839;SDS011;35514;50.504;30.500;2022-12-18T02:28:54;39.53;;;11.75;;
35839;SDS011;35514;50.504;30.500;2022-12-18T02:31:27;32.65;;;11.85;;
35839;SDS011;35514;50.504;30.500;2022-12-18T02:33:56;40.25;;;11.23;;
35839;SDS011;35514;50.504;30.500;2022-12-18T02:36:24;35.55;;;13.02;;
35839;SDS011;35514;50.504;30.500;2022-12-18T02:38:53;32.90;;;10.27;;
35839;SDS011;35514;50.504;30.500;2022-12-18T02:41:28;35.33;;;12.18;;
35839;SDS011;35514;50.504;30.500;2022-12-18T02:43:56;34.20;;;10.15;;
35839;SDS011;35514;50.504;30.500;2022-12-18T02:46:29;33.00;;;11.63;;
35839;SDS011;35514;50.504;30.500;2022-12-18T02:49:01;29.23;;;9.93;;
35839;SDS011;35514;50.504;30.500;2022-12-18T02:51:32;23.67;;;10.73;;
35839;SDS011;35514;50.504;30.500;2022-12-18T02:54:03;28.58;;;10.52;;
35839;SDS011;35514;50.504;30.500;2022-12-18T02:56:35;30.08;;;11.02;;
35839;SDS011;35514;50.504;30.500;2022-12-18T02:59:05;31.05;;;10.88;;
35839;SDS011;35514;50.504;30.500;2022-12-18T03:04:07;25.65;;;9.20;;
35839;SDS011;35514;50.504;30.500;2022-12-18T03:06:37;25.08;;;10.07;;
35839;SDS011;35514;50.504;30.500;2022-12-18T03:09:07;37.30;;;12.15;;
35839;SDS011;35514;50.504;30.500;2022-12-18T03:11:39;33.95;;;10.75;;
35839;SDS011;35514;50.504;30.500;2022-12-18T03:14:34;27.98;;;10.20;;
35839;SDS011;35514;50.504;30.500;2022-12-18T03:17:08;25.33;;;9.40;;
35839;SDS011;35514;50.504;30.500;2022-12-18T03:19:39;27.10;;;9.70;;
35839;SDS011;35514;50.504;30.500;2022-12-18T03:22:07;30.95;;;10.82;;
35839;SDS011;35514;50.504;30.500;2022-12-18T03:24:35;24.25;;;8.98;;
35839;SDS011;35514;50.504;30.500;2022-12-18T03:27:07;27.05;;;10.05;;
35839;SDS011;35514;50.504;30.500;2022-12-18T03:29:38;34.53;;;11.00;;
35839;SDS011;35514;50.504;30.500;2022-12-18T03:32:07;27.80;;;10.27;;
35839;SDS011;35514;50.504;30.500;2022-12-18T03:34:45;26.95;;;10.98;;
35839;SDS011;35514;50.504;30.500;2022-12-18T03:37:18;25.23;;;9.77;;
35839;SDS011;35514;50.504;30.500;2022-12-18T03:39:48;27.70;;;11.18;;
35839;SDS011;35514;50.504;30.500;2022-12-18T03:42:20;28.85;;;9.52;;
35839;SDS011;35514;50.504;30.500;2022-12-18T03:44:53;29.40;;;9.98;;
35839;SDS011;35514;50.504;30.500;2022-12-18T03:47:23;20.40;;;7.88;;
35839;SDS011;35514;50.504;30.500;2022-12-18T03:49:56;17.55;;;8.48;;
35839;SDS011;35514;50.504;30.500;2022-12-18T03:52:26;20.90;;;8.80;;
35839;SDS011;35514;50.504;30.500;2022-12-18T03:54:54;24.33;;;9.57;;
35839;SDS011;35514;50.504;30.500;2022-12-18T03:57:24;22.08;;;9.02;;
35839;SDS011;35514;50.504;30.500;2022-12-18T03:59:54;28.48;;;9.57;;
35839;SDS011;35514;50.504;30.500;2022-12-18T04:02:23;23.35;;;9.50;;
35839;SDS011;35514;50.504;30.500;2022-12-18T04:04:51;26.60;;;10.05;;
35839;SDS011;35514;50.504;30.500;2022-12-18T04:07:20;29.60;;;9.13;;
35839;SDS011;35514;50.504;30.500;2022-12-18T04:09:49;22.77;;;9.88;;
35839;SDS011;35514;50.504;30.500;2022-12-18T04:12:18;18.65;;;8.70;;
35839;SDS011;35514;50.504;30.500;2022-12-18T04:14:47;27.75;;;11.02;;
35839;SDS011;35514;50.504;30.500;2022-12-18T04:17:14;23.95;;;8.73;;
35839;SDS011;35514;50.504;30.500;2022-12-18T04:19:42;26.27;;;8.68;;
35839;SDS011;35514;50.504;30.500;2022-12-18T04:22:09;20.67;;;8.45;;
35839;SDS011;35514;50.504;30.500;2022-12-18T04:24:37;23.02;;;8.40;;
35839;SDS011;35514;50.504;30.500;2022-12-18T04:27:05;19.88;;;8.13;;
35839;SDS011;35514;50.504;30.500;2022-12-18T04:29:32;24.98;;;9.23;;
35839;SDS011;35514;50.504;30.500;2022-12-18T04:32:01;26.38;;;8.90;;
35839;SDS011;35514;50.504;30.500;2022-12-18T04:34:28;27.23;;;9.68;;
35839;SDS011;35514;50.504;30.500;2022-12-18T04:36:56;29.50;;;9.23;;
35839;SDS011;35514;50.504;30.500;2022-12-18T04:39:24;30.55;;;8.60;;
35839;SDS011;35514;50.504;30.500;2022-12-18T04:41:51;25.35;;;8.07;;
35839;SDS011;35514;50.504;30.500;2022-12-18T04:44:19;18.92;;;6.80;;
35839;SDS011;35514;50.504;30.500;2022-12-18T04:46:47;26.25;;;9.68;;
35839;SDS011;35514;50.504;30.500;2022-12-18T04:49:15;23.65;;;8.50;;
35839;SDS011;35514;50.504;30.500;2022-12-18T04:51:43;24.40;;;7.97;;
35839;SDS011;35514;50.504;30.500;2022-12-18T04:54:10;26.00;;;9.52;;
35839;SDS011;35514;50.504;30.500;2022-12-18T04:56:38;28.30;;;8.45;;
35839;SDS011;35514;50.504;30.500;2022-12-18T04:59:06;22.35;;;8.75;;
35839;SDS011;35514;50.504;30.500;2022-12-18T05:01:33;23.90;;;8.25;;
35839;SDS011;35514;50.504;30.500;2022-12-18T05:04:01;23.73;;;8.45;;
35839;SDS011;35514;50.504;30.500;2022-12-18T05:06:30;22.15;;;8.77;;
35839;SDS011;35514;50.504;30.500;2022-12-18T05:08:57;20.80;;;7.97;;
35839;SDS011;35514;50.504;30.500;2022-12-18T05:11:25;26.15;;;8.80;;
35839;SDS011;35514;50.504;30.500;2022-12-18T05:13:56;24.77;;;8.85;;
35839;SDS011;35514;50.504;30.500;2022-12-18T05:16:23;21.23;;;7.43;;
35839;SDS011;35514;50.504;30.500;2022-12-18T05:18:51;20.55;;;9.65;;
35839;SDS011;35514;50.504;30.500;2022-12-18T05:21:18;25.65;;;8.38;;
35839;SDS011;35514;50.504;30.500;2022-12-18T05:23:47;17.25;;;7.60;;
35839;SDS011;35514;50.504;30.500;2022-12-18T05:26:16;23.55;;;6.80;;
35839;SDS011;35514;50.504;30.500;2022-12-18T05:28:44;22.92;;;8.18;;
35839;SDS011;35514;50.504;30.500;2022-12-18T05:31:12;23.45;;;8.15;;
35839;SDS011;35514;50.504;30.500;2022-12-18T05:33:40;22.33;;;8.77;;
35839;SDS011;35514;50.504;30.500;2022-12-18T05:36:09;23.38;;;7.85;;
35839;SDS011;35514;50.504;30.500;2022-12-18T05:38:37;29.15;;;8.55;;
35839;SDS011;35514;50.504;30.500;2022-12-18T05:41:07;18.45;;;7.65;;
35839;SDS011;35514;50.504;30.500;2022-12-18T05:43:35;20.70;;;7.68;;
35839;SDS011;35514;50.504;30.500;2022-12-18T05:46:04;23.38;;;8.07;;
35839;SDS011;35514;50.504;30.500;2022-12-18T05:48:32;24.85;;;8.60;;
35839;SDS011;35514;50.504;30.500;2022-12-18T05:51:03;27.42;;;8.85;;
35839;SDS011;35514;50.504;30.500;2022-12-18T05:53:31;22.08;;;8.15;;
35839;SDS011;35514;50.504;30.500;2022-12-18T05:56:01;28.15;;;9.50;;
35839;SDS011;35514;50.504;30.500;2022-12-18T05:58:32;24.83;;;8.50;;
35839;SDS011;35514;50.504;30.500;2022-12-18T06:01:05;19.52;;;7.60;;
35839;SDS011;35514;50.504;30.500;2022-12-18T06:03:33;23.48;;;8.15;;
35839;SDS011;35514;50.504;30.500;2022-12-18T06:06:04;19.02;;;7.78;;
35839;SDS011;35514;50.504;30.500;2022-12-18T06:08:38;20.25;;;7.93;;
35839;SDS011;35514;50.504;30.500;2022-12-18T06:11:11;18.40;;;6.25;;
35839;SDS011;35514;50.504;30.500;2022-12-18T06:13:44;21.17;;;7.53;;
35839;SDS011;35514;50.504;30.500;2022-12-18T06:16:21;21.02;;;7.93;;
35839;SDS011;35514;50.504;30.500;2022-12-18T06:18:49;19.20;;;7.32;;
35839;SDS011;35514;50.504;30.500;2022-12-18T06:21:18;22.25;;;7.50;;
35839;SDS011;35514;50.504;30.500;2022-12-18T06:23:46;19.23;;;7.72;;
35839;SDS011;35514;50.504;30.500;2022-12-18T06:26:15;16.20;;;6.80;;
35839;SDS011;35514;50.504;30.500;2022-12-18T06:28:49;21.02;;;7.57;;
35839;SDS011;35514;50.504;30.500;2022-12-18T06:31:17;14.15;;;6.53;;
35839;SDS011;35514;50.504;30.500;2022-12-18T06:33:47;16.13;;;8.13;;
35839;SDS011;35514;50.504;30.500;2022-12-18T06:36:15;22.58;;;9.23;;
35839;SDS011;35514;50.504;30.500;2022-12-18T06:38:43;18.13;;;7.32;;
35839;SDS011;35514;50.504;30.500;2022-12-18T06:41:14;19.27;;;7.65;;
35839;SDS011;35514;50.504;30.500;2022-12-18T06:43:47;19.73;;;6.75;;
35839;SDS011;35514;50.504;30.500;2022-12-18T06:46:24;19.63;;;7.82;;
35839;SDS011;35514;50.504;30.500;2022-12-18T06:48:57;17.63;;;6.93;;
35839;SDS011;35514;50.504;30.500;2022-12-18T06:51:30;23.00;;;8.05;;
35839;SDS011;35514;50.504;30.500;2022-12-18T06:53:58;23.98;;;6.07;;
35839;SDS011;35514;50.504;30.500;2022-12-18T06:56:26;16.10;;;6.50;;
35839;SDS011;35514;50.504;30.500;2022-12-18T06:58:54;21.98;;;8.48;;
35839;SDS011;35514;50.504;30.500;2022-12-18T07:01:22;16.98;;;6.75;;
35839;SDS011;35514;50.504;30.500;2022-12-18T07:03:57;23.98;;;8.73;;
35839;SDS011;35514;50.504;30.500;2022-12-18T07:06:25;22.77;;;8.05;;
35839;SDS011;35514;50.504;30.500;2022-12-18T07:08:54;22.65;;;8.70;;
35839;SDS011;35514;50.504;30.500;2022-12-18T07:11:22;20.95;;;6.82;;
35839;SDS011;35514;50.504;30.500;2022-12-18T07:13:51;23.80;;;8.75;;
35839;SDS011;35514;50.504;30.500;2022-12-18T07:16:21;24.40;;;7.60;;
35839;SDS011;35514;50.504;30.500;2022-12-18T07:18:51;21.13;;;7.93;;
35839;SDS011;35514;50.504;30.500;2022-12-18T07:21:20;18.92;;;7.25;;
35839;SDS011;35514;50.504;30.500;2022-12-18T07:23:47;20.02;;;8.18;;
35839;SDS011;35514;50.504;30.500;2022-12-18T07:26:18;27.63;;;7.25;;
35839;SDS011;35514;50.504;30.500;2022-12-18T07:29:11;21.10;;;8.20;;
35839;SDS011;35514;50.504;30.500;2022-12-18T07:31:45;23.17;;;7.65;;
35839;SDS011;35514;50.504;30.500;2022-12-18T07:34:13;19.42;;;7.05;;
35839;SDS011;35514;50.504;30.500;2022-12-18T07:36:42;23.63;;;8.45;;
35839;SDS011;35514;50.504;30.500;2022-12-18T07:39:12;21.33;;;7.80;;
35839;SDS011;35514;50.504;30.500;2022-12-18T07:41:40;19.67;;;7.22;;
35839;SDS011;35514;50.504;30.500;2022-12-18T07:44:12;27.92;;;7.95;;
35839;SDS011;35514;50.504;30.500;2022-12-18T07:46:40;14.93;;;6.30;;
35839;SDS011;35514;50.504;30.500;2022-12-18T07:49:13;19.25;;;6.25;;
35839;SDS011;35514;50.504;30.500;2022-12-18T07:51:40;27.80;;;9.10;;
35839;SDS011;35514;50.504;30.500;2022-12-18T07:54:09;17.80;;;6.70;;
35839;SDS011;35514;50.504;30.500;2022-12-18T07:56:37;18.92;;;7.40;;
35839;SDS011;35514;50.504;30.500;2022-12-18T07:59:05;19.70;;;8.15;;
35839;SDS011;35514;50.504;30.500;2022-12-18T08:01:32;16.48;;;6.53;;
35839;SDS011;35514;50.504;30.500;2022-12-18T08:04:01;16.80;;;7.15;;
35839;SDS011;35514;50.504;30.500;2022-12-18T08:06:28;24.48;;;8.15;;
35839;SDS011;35514;50.504;30.500;2022-12-18T08:08:56;18.83;;;7.13;;
35839;SDS011;35514;50.504;30.500;2022-12-18T08:11:26;19.25;;;7.78;;
35839;SDS011;35514;50.504;30.500;2022-12-18T08:13:54;24.63;;;8.35;;
35839;SDS011;35514;50.504;30.500;2022-12-18T08:16:22;22.58;;;7.63;;
35839;SDS011;35514;50.504;30.500;2022-12-18T08:18:50;20.48;;;7.35;;
35839;SDS011;35514;50.504;30.500;2022-12-18T08:21:19;22.48;;;7.43;;
35839;SDS011;35514;50.504;30.500;2022-12-18T08:23:49;26.40;;;7.32;;
35839;SDS011;35514;50.504;30.500;2022-12-18T08:26:18;18.55;;;7.00;;
35839;SDS011;35514;50.504;30.500;2022-12-18T08:28:48;17.33;;;7.10;;
35839;SDS011;35514;50.504;30.500;2022-12-18T08:31:16;19.17;;;6.95;;
35839;SDS011;35514;50.504;30.500;2022-12-18T08:33:44;21.25;;;6.85;;
35839;SDS011;35514;50.504;30.500;2022-12-18T08:36:12;19.10;;;6.82;;
35839;SDS011;35514;50.504;30.500;2022-12-18T08:38:39;18.45;;;6.38;;
35839;SDS011;35514;50.504;30.500;2022-12-18T08:41:08;18.65;;;6.38;;
35839;SDS011;35514;50.504;30.500;2022-12-18T08:43:36;18.58;;;7.38;;
35839;SDS011;35514;50.504;30.500;2022-12-18T08:46:23;23.98;;;8.65;;
35839;SDS011;35514;50.504;30.500;2022-12-18T08:48:54;23.75;;;6.47;;
35839;SDS011;35514;50.504;30.500;2022-12-18T08:51:22;24.67;;;7.90;;
35839;SDS011;35514;50.504;30.500;2022-12-18T08:53:50;18.88;;;6.93;;
35839;SDS011;35514;50.504;30.500;2022-12-18T08:56:18;16.50;;;6.45;;
35839;SDS011;35514;50.504;30.500;2022-12-18T08:58:46;22.17;;;7.10;;
35839;SDS011;35514;50.504;30.500;2022-12-18T09:01:15;28.17;;;8.05;;
35839;SDS011;35514;50.504;30.500;2022-12-18T09:03:46;18.98;;;6.80;;
35839;SDS011;35514;50.504;30.500;2022-12-18T09:06:18;16.08;;;6.93;;
35839;SDS011;35514;50.504;30.500;2022-12-18T09:08:46;18.15;;;6.70;;
35839;SDS011;35514;50.504;30.500;2022-12-18T09:11:14;13.93;;;6.18;;
35839;SDS011;35514;50.504;30.500;2022-12-18T09:13:42;16.83;;;6.20;;
35839;SDS011;35514;50.504;30.500;2022-12-18T09:16:10;19.67;;;6.40;;
35839;SDS011;35514;50.504;30.500;2022-12-18T09:18:37;17.00;;;5.70;;
35839;SDS011;35514;50.504;30.500;2022-12-18T09:21:12;20.70;;;7.07;;
35839;SDS011;35514;50.504;30.500;2022-12-18T09:23:42;14.48;;;5.70;;
35839;SDS011;35514;50.504;30.500;2022-12-18T09:26:11;21.33;;;5.50;;
35839;SDS011;35514;50.504;30.500;2022-12-18T09:28:41;18.67;;;6.63;;
35839;SDS011;35514;50.504;30.500;2022-12-18T09:31:11;17.85;;;5.68;;
35839;SDS011;35514;50.504;30.500;2022-12-18T09:33:39;14.57;;;5.30;;
35839;SDS011;35514;50.504;30.500;2022-12-18T09:36:08;19.00;;;6.97;;
35839;SDS011;35514;50.504;30.500;2022-12-18T09:38:38;11.88;;;5.88;;
35839;SDS011;35514;50.504;30.500;2022-12-18T09:41:15;16.63;;;5.75;;
35839;SDS011;35514;50.504;30.500;2022-12-18T09:43:45;11.95;;;5.15;;
35839;SDS011;35514;50.504;30.500;2022-12-18T09:46:15;18.05;;;5.90;;
35839;SDS011;35514;50.504;30.500;2022-12-18T09:48:45;16.17;;;6.40;;
35839;SDS011;35514;50.504;30.500;2022-12-18T09:51:14;16.42;;;6.07;;
35839;SDS011;35514;50.504;30.500;2022-12-18T09:53:45;18.90;;;6.80;;
35839;SDS011;35514;50.504;30.500;2022-12-18T09:56:16;13.38;;;5.93;;
35839;SDS011;35514;50.504;30.500;2022-12-18T09:58:45;17.05;;;5.85;;
35839;SDS011;35514;50.504;30.500;2022-12-18T10:01:16;8.23;;;4.25;;
35839;SDS011;35514;50.504;30.500;2022-12-18T10:03:45;15.18;;;5.68;;
35839;SDS011;35514;50.504;30.500;2022-12-18T10:06:14;9.75;;;4.78;;
35839;SDS011;35514;50.504;30.500;2022-12-18T10:08:43;12.93;;;5.53;;
35839;SDS011;35514;50.504;30.500;2022-12-18T10:11:21;16.17;;;6.13;;
35839;SDS011;35514;50.504;30.500;2022-12-18T10:13:52;12.38;;;5.22;;
35839;SDS011;35514;50.504;30.500;2022-12-18T10:16:22;12.27;;;5.70;;
35839;SDS011;35514;50.504;30.500;2022-12-18T10:19:01;15.40;;;5.05;;
35839;SDS011;35514;50.504;30.500;2022-12-18T10:21:30;17.42;;;6.38;;
35839;SDS011;35514;50.504;30.500;2022-12-18T10:24:00;17.83;;;6.88;;
35839;SDS011;35514;50.504;30.500;2022-12-18T10:26:34;13.43;;;5.65;;
35839;SDS011;35514;50.504;30.500;2022-12-18T10:29:04;12.27;;;4.95;;
35839;SDS011;35514;50.504;30.500;2022-12-18T10:31:31;13.05;;;5.30;;
35839;SDS011;35514;50.504;30.500;2022-12-18T10:33:59;17.15;;;6.70;;
35839;SDS011;35514;50.504;30.500;2022-12-18T10:36:27;13.77;;;5.78;;
35839;SDS011;35514;50.504;30.500;2022-12-18T10:38:55;14.68;;;5.70;;
35839;SDS011;35514;50.504;30.500;2022-12-18T10:41:42;14.25;;;5.55;;
35839;SDS011;35514;50.504;30.500;2022-12-18T10:44:11;12.30;;;5.68;;
35839;SDS011;35514;50.504;30.500;2022-12-18T10:46:38;14.20;;;6.20;;
35839;SDS011;35514;50.504;30.500;2022-12-18T10:49:07;14.38;;;5.47;;
35839;SDS011;35514;50.504;30.500;2022-12-18T10:51:45;14.20;;;5.45;;
35839;SDS011;35514;50.504;30.500;2022-12-18T10:54:13;17.15;;;5.90;;
35839;SDS011;35514;50.504;30.500;2022-12-18T10:56:48;17.13;;;5.13;;
35839;SDS011;35514;50.504;30.500;2022-12-18T10:59:18;14.73;;;5.03;;
35839;SDS011;35514;50.504;30.500;2022-12-18T11:01:50;17.25;;;5.32;;
35839;SDS011;35514;50.504;30.500;2022-12-18T11:04:29;11.38;;;4.95;;
35839;SDS011;35514;50.504;30.500;2022-12-18T11:06:57;14.75;;;6.10;;
35839;SDS011;35514;50.504;30.500;2022-12-18T11:09:26;19.30;;;6.85;;
35839;SDS011;35514;50.504;30.500;2022-12-18T11:11:56;15.23;;;5.95;;
35839;SDS011;35514;50.504;30.500;2022-12-18T11:14:25;18.10;;;6.70;;
35839;SDS011;35514;50.504;30.500;2022-12-18T11:16:58;11.57;;;5.50;;
35839;SDS011;35514;50.504;30.500;2022-12-18T11:19:51;16.27;;;5.38;;
35839;SDS011;35514;50.504;30.500;2022-12-18T11:24:55;19.85;;;6.75;;
35839;SDS011;35514;50.504;30.500;2022-12-18T11:27:48;15.38;;;6.07;;
35839;SDS011;35514;50.504;30.500;2022-12-18T11:30:22;14.80;;;5.57;;
35839;SDS011;35514;50.504;30.500;2022-12-18T11:32:50;19.55;;;6.70;;
35839;SDS011;35514;50.504;30.500;2022-12-18T11:35:20;18.70;;;7.40;;
35839;SDS011;35514;50.504;30.500;2022-12-18T11:37:50;16.38;;;5.43;;
35839;SDS011;35514;50.504;30.500;2022-12-18T11:40:22;20.65;;;6.43;;
35839;SDS011;35514;50.504;30.500;2022-12-18T11:42:56;14.02;;;5.55;;
35839;SDS011;35514;50.504;30.500;2022-12-18T11:45:29;19.00;;;6.22;;
35839;SDS011;35514;50.504;30.500;2022-12-18T11:47:58;13.40;;;5.22;;
35839;SDS011;35514;50.504;30.500;2022-12-18T11:50:29;15.38;;;5.80;;
35839;SDS011;35514;50.504;30.500;2022-12-18T11:52:58;13.95;;;5.22;;
35839;SDS011;35514;50.504;30.500;2022-12-18T11:55:33;16.02;;;7.07;;
35839;SDS011;35514;50.504;30.500;2022-12-18T11:58:05;14.07;;;5.70;;
35839;SDS011;35514;50.504;30.500;2022-12-18T12:00:35;11.38;;;5.57;;
35839;SDS011;35514;50.504;30.500;2022-12-18T12:03:14;12.75;;;5.65;;
35839;SDS011;35514;50.504;30.500;2022-12-18T12:05:47;15.70;;;5.40;;
35839;SDS011;35514;50.504;30.500;2022-12-18T12:08:21;21.75;;;5.38;;
35839;SDS011;35514;50.504;30.500;2022-12-18T12:10:57;13.55;;;5.85;;
35839;SDS011;35514;50.504;30.500;2022-12-18T12:13:33;26.48;;;6.32;;
35839;SDS011;35514;50.504;30.500;2022-12-18T12:16:13;10.85;;;5.05;;
35839;SDS011;35514;50.504;30.500;2022-12-18T12:21:28;10.57;;;4.97;;
35839;SDS011;35514;50.504;30.500;2022-12-18T12:23:58;13.65;;;5.20;;
35839;SDS011;35514;50.504;30.500;2022-12-18T12:26:29;11.15;;;5.63;;
35839;SDS011;35514;50.504;30.500;2022-12-18T12:29:04;10.93;;;4.32;;
35839;SDS011;35514;50.504;30.500;2022-12-18T12:31:43;14.77;;;5.15;;
35839;SDS011;35514;50.504;30.500;2022-12-18T12:34:16;11.65;;;5.43;;
35839;SDS011;35514;50.504;30.500;2022-12-18T12:36:53;11.70;;;5.35;;
35839;SDS011;35514;50.504;30.500;2022-12-18T12:39:27;14.63;;;5.68;;
35839;SDS011;35514;50.504;30.500;2022-12-18T12:41:56;15.85;;;5.80;;
35839;SDS011;35514;50.504;30.500;2022-12-18T12:44:49;13.70;;;4.78;;
35839;SDS011;35514;50.504;30.500;2022-12-18T12:50:12;12.25;;;4.80;;
35839;SDS011;35514;50.504;30.500;2022-12-18T12:52:41;11.93;;;4.72;;
35839;SDS011;35514;50.504;30.500;2022-12-18T12:55:12;13.98;;;5.55;;
35839;SDS011;35514;50.504;30.500;2022-12-18T12:57:42;11.68;;;5.18;;
35839;SDS011;35514;50.504;30.500;2022-12-18T13:00:13;14.90;;;6.55;;
35839;SDS011;35514;50.504;30.500;2022-12-18T13:02:47;11.30;;;5.22;;
35839;SDS011;35514;50.504;30.500;2022-12-18T13:05:30;9.68;;;5.10;;
35839;SDS011;35514;50.504;30.500;2022-12-18T13:08:00;13.68;;;5.90;;
35839;SDS011;35514;50.504;30.500;2022-12-18T13:10:33;15.30;;;5.75;;
35839;SDS011;35514;50.504;30.500;2022-12-18T13:13:02;11.25;;;4.70;;
35839;SDS011;35514;50.504;30.500;2022-12-18T13:15:32;11.27;;;4.32;;
35839;SDS011;35514;50.504;30.500;2022-12-18T13:18:15;12.70;;;5.32;;
35839;SDS011;35514;50.504;30.500;2022-12-18T13:20:53;10.77;;;4.80;;
35839;SDS011;35514;50.504;30.500;2022-12-18T13:23:34;10.93;;;4.25;;
35839;SDS011;35514;50.504;30.500;2022-12-18T13:28:55;16.48;;;5.43;;
35839;SDS011;35514;50.504;30.500;2022-12-18T13:34:01;12.63;;;4.38;;
35839;SDS011;35514;50.504;30.500;2022-12-18T13:36:52;12.70;;;5.40;;
35839;SDS011;35514;50.504;30.500;2022-12-18T13:39:24;12.50;;;4.90;;
35839;SDS011;35514;50.504;30.500;2022-12-18T13:47:46;13.45;;;5.78;;
35839;SDS011;35514;50.504;30.500;2022-12-18T13:50:22;11.85;;;5.05;;
35839;SDS011;35514;50.504;30.500;2022-12-18T13:52:50;12.82;;;5.40;;
35839;SDS011;35514;50.504;30.500;2022-12-18T13:55:18;16.35;;;5.40;;
35839;SDS011;35514;50.504;30.500;2022-12-18T13:57:46;17.10;;;5.72;;
35839;SDS011;35514;50.504;30.500;2022-12-18T14:00:23;19.77;;;7.13;;
35839;SDS011;35514;50.504;30.500;2022-12-18T14:02:57;16.10;;;5.68;;
35839;SDS011;35514;50.504;30.500;2022-12-18T14:05:31;21.02;;;5.53;;
35839;SDS011;35514;50.504;30.500;2022-12-18T14:08:10;13.73;;;6.13;;
35839;SDS011;35514;50.504;30.500;2022-12-18T14:10:49;15.38;;;5.32;;
35839;SDS011;35514;50.504;30.500;2022-12-18T14:13:23;12.95;;;5.28;;
35839;SDS011;35514;50.504;30.500;2022-12-18T14:16:04;15.80;;;5.93;;
35839;SDS011;35514;50.504;30.500;2022-12-18T14:18:42;11.90;;;4.85;;
35839;SDS011;35514;50.504;30.500;2022-12-18T14:21:30;17.20;;;6.65;;
35839;SDS011;35514;50.504;30.500;2022-12-18T14:24:05;13.43;;;4.57;;
35839;SDS011;35514;50.504;30.500;2022-12-18T14:26:33;17.58;;;5.32;;
35839;SDS011;35514;50.504;30.500;2022-12-18T14:29:17;15.00;;;5.45;;
35839;SDS011;35514;50.504;30.500;2022-12-18T14:34:42;13.13;;;4.78;;
35839;SDS011;35514;50.504;30.500;2022-12-18T14:37:16;12.45;;;4.95;;
35839;SDS011;35514;50.504;30.500;2022-12-18T14:39:54;9.80;;;4.70;;
35839;SDS011;35514;50.504;30.500;2022-12-18T14:42:22;8.70;;;3.63;;
35839;SDS011;35514;50.504;30.500;2022-12-18T14:47:43;10.63;;;4.57;;
35839;SDS011;35514;50.504;30.500;2022-12-18T14:50:14;9.05;;;4.35;;
35839;SDS011;35514;50.504;30.500;2022-12-18T14:52:44;13.93;;;5.00;;
35839;SDS011;35514;50.504;30.500;2022-12-18T14:55:20;8.57;;;3.90;;
35839;SDS011;35514;50.504;30.500;2022-12-18T14:57:49;12.88;;;4.22;;
35839;SDS011;35514;50.504;30.500;2022-12-18T15:00:22;10.00;;;4.43;;
35839;SDS011;35514;50.504;30.500;2022-12-18T15:02:50;11.32;;;4.80;;
35839;SDS011;35514;50.504;30.500;2022-12-18T15:05:42;13.00;;;4.32;;
35839;SDS011;35514;50.504;30.500;2022-12-18T15:10:56;10.55;;;4.55;;